createdAt,value
2022-08-29T00:01:21.324Z,13.50
2022-08-29T00:03:50.335Z,13.40
2022-08-29T00:06:17.658Z,13.30
2022-08-29T00:08:44.952Z,13.20
2022-08-29T00:11:12.884Z,13.20
2022-08-29T00:13:41.186Z,13.20
2022-08-29T00:16:08.831Z,13.20
2022-08-29T00:18:36.614Z,13.20
2022-08-29T00:21:05.132Z,13.10
2022-08-29T00:23:32.415Z,13.00
2022-08-29T00:25:59.642Z,12.80
2022-08-29T00:28:27.073Z,12.70
2022-08-29T00:30:54.567Z,12.50
2022-08-29T00:33:21.795Z,12.40
2022-08-29T00:35:49.058Z,12.30
2022-08-29T00:38:18.228Z,12.30
2022-08-29T00:40:53.747Z,12.20
2022-08-29T00:43:27.435Z,12.20
2022-08-29T00:46:53.781Z,12.10
2022-08-29T00:49:29.562Z,12.00
2022-08-29T00:51:59.435Z,11.90
2022-08-29T00:54:27.928Z,11.80
2022-08-29T00:56:56.005Z,11.80
2022-08-29T00:59:28.867Z,11.70
2022-08-29T01:01:56.185Z,11.70
2022-08-29T01:04:24.527Z,11.70
2022-08-29T01:06:53.775Z,11.70
2022-08-29T01:09:21.991Z,11.60
2022-08-29T01:12:07.970Z,11.60
2022-08-29T01:14:38.589Z,11.60
2022-08-29T01:17:08.640Z,11.60
2022-08-29T01:19:52.127Z,11.60
2022-08-29T01:22:34.917Z,11.50
2022-08-29T01:25:06.160Z,11.50
2022-08-29T01:27:36.719Z,11.40
2022-08-29T01:30:06.354Z,11.30
2022-08-29T01:32:33.798Z,11.40
2022-08-29T01:35:01.218Z,11.30
2022-08-29T01:37:33.918Z,11.30
2022-08-29T01:40:01.255Z,11.30
2022-08-29T01:42:28.688Z,11.20
2022-08-29T01:45:03.694Z,11.20
2022-08-29T01:47:34.864Z,11.10
2022-08-29T01:50:13.082Z,11.10
2022-08-29T01:52:42.634Z,11.00
2022-08-29T01:55:10.300Z,11.00
2022-08-29T01:57:39.438Z,11.00
2022-08-29T02:00:09.767Z,10.90
2022-08-29T02:02:38.223Z,10.80
2022-08-29T02:05:05.814Z,10.70
2022-08-29T02:07:33.077Z,10.70
2022-08-29T02:10:00.312Z,10.80
2022-08-29T02:12:27.562Z,11.00
2022-08-29T02:14:54.812Z,11.10
2022-08-29T02:17:22.246Z,11.20
2022-08-29T02:19:49.446Z,11.20
2022-08-29T02:22:19.277Z,11.30
2022-08-29T02:24:46.565Z,11.20
2022-08-29T02:27:13.797Z,11.20
2022-08-29T02:29:41.051Z,11.20
2022-08-29T02:32:14.494Z,11.20
2022-08-29T02:34:47.617Z,11.20
2022-08-29T02:37:16.760Z,11.30
2022-08-29T02:39:43.992Z,11.30
2022-08-29T02:42:11.207Z,11.30
2022-08-29T02:44:38.381Z,11.40
2022-08-29T02:47:05.713Z,11.40
2022-08-29T02:49:32.945Z,11.30
2022-08-29T02:52:02.399Z,11.20
2022-08-29T02:54:29.757Z,11.10
2022-08-29T02:56:56.910Z,10.90
2022-08-29T02:59:24.121Z,10.90
2022-08-29T03:01:53.439Z,10.80
2022-08-29T03:04:20.860Z,10.70
2022-08-29T03:06:48.006Z,10.60
2022-08-29T03:09:15.174Z,10.50
2022-08-29T03:11:42.335Z,10.50
2022-08-29T03:14:09.542Z,10.50
2022-08-29T03:16:36.917Z,10.40
2022-08-29T03:19:04.175Z,10.50
2022-08-29T03:21:33.287Z,10.50
2022-08-29T03:24:00.459Z,10.50
2022-08-29T03:26:27.617Z,10.50
2022-08-29T03:28:54.792Z,10.50
2022-08-29T03:31:22.175Z,10.40
2022-08-29T03:33:49.441Z,10.30
2022-08-29T03:36:16.815Z,10.30
2022-08-29T03:38:46.285Z,10.20
2022-08-29T03:41:22.189Z,10.20
2022-08-29T03:43:49.421Z,10.10
2022-08-29T03:46:16.713Z,10.00
2022-08-29T03:48:44.143Z,9.90
2022-08-29T03:51:11.374Z,9.80
2022-08-29T03:53:38.537Z,9.80
2022-08-29T03:56:07.036Z,9.80
2022-08-29T03:58:34.699Z,9.80
2022-08-29T04:01:02.155Z,9.80
2022-08-29T04:03:31.136Z,9.80
2022-08-29T04:05:59.552Z,9.80
2022-08-29T04:08:26.762Z,9.80
2022-08-29T04:10:53.973Z,9.80
2022-08-29T04:13:21.831Z,9.80
2022-08-29T04:15:49.414Z,9.80
2022-08-29T04:18:21.274Z,9.80
2022-08-29T04:20:48.997Z,9.80
2022-08-29T04:23:16.696Z,9.80
2022-08-29T04:25:44.133Z,9.70
2022-08-29T04:28:13.649Z,9.70
2022-08-29T04:30:51.435Z,9.70
2022-08-29T04:33:22.725Z,9.80
2022-08-29T04:35:51.933Z,9.80
2022-08-29T04:38:19.689Z,9.80
2022-08-29T04:40:47.337Z,9.80
2022-08-29T04:43:14.809Z,9.90
2022-08-29T04:45:42.005Z,9.90
2022-08-29T04:48:10.670Z,9.90
2022-08-29T04:50:38.043Z,10.00
2022-08-29T04:53:05.266Z,10.00
2022-08-29T04:55:32.966Z,10.00
2022-08-29T04:58:00.520Z,9.90
2022-08-29T05:00:30.638Z,9.90
2022-08-29T05:02:58.418Z,9.80
2022-08-29T05:05:26.261Z,9.80
2022-08-29T05:07:53.791Z,9.90
2022-08-29T05:10:22.397Z,10.10
2022-08-29T05:12:49.617Z,10.30
2022-08-29T05:15:17.797Z,10.50
2022-08-29T05:17:45.086Z,10.60
2022-08-29T05:20:12.783Z,10.80
2022-08-29T05:22:40.389Z,10.80
2022-08-29T05:25:08.319Z,10.90
2022-08-29T05:27:35.567Z,10.90
2022-08-29T05:30:04.805Z,11.00
2022-08-29T05:32:32.026Z,11.10
2022-08-29T05:35:00.106Z,11.20
2022-08-29T05:37:27.284Z,11.30
2022-08-29T05:39:56.067Z,11.40
2022-08-29T05:42:23.777Z,11.60
2022-08-29T05:44:51.936Z,11.70
2022-08-29T05:47:20.277Z,12.00
2022-08-29T05:49:48.546Z,12.40
2022-08-29T05:52:18.787Z,12.70
2022-08-29T05:54:46.627Z,12.90
2022-08-29T05:57:19.337Z,13.10
2022-08-29T05:59:48.406Z,13.20
2022-08-29T06:02:16.530Z,13.30
2022-08-29T06:04:44.292Z,13.30
2022-08-29T06:07:12.802Z,13.30
2022-08-29T06:09:41.843Z,13.50
2022-08-29T06:12:10.242Z,13.70
2022-08-29T06:14:37.921Z,13.80
2022-08-29T06:17:08.094Z,14.10
2022-08-29T06:19:39.381Z,14.20
2022-08-29T06:22:09.901Z,14.20
2022-08-29T06:24:38.739Z,14.30
2022-08-29T06:27:06.151Z,14.40
2022-08-29T06:29:38.461Z,14.40
2022-08-29T06:32:12.195Z,14.50
2022-08-29T06:34:40.162Z,14.60
2022-08-29T06:37:07.440Z,14.60
2022-08-29T06:39:34.783Z,14.70
2022-08-29T06:42:02.210Z,14.70
2022-08-29T06:44:31.773Z,14.80
2022-08-29T06:46:59.407Z,14.80
2022-08-29T06:49:27.659Z,14.80
2022-08-29T06:51:58.220Z,15.00
2022-08-29T06:54:28.420Z,15.10
2022-08-29T06:56:57.778Z,15.40
2022-08-29T06:59:25.963Z,15.50
2022-08-29T07:01:55.263Z,15.90
2022-08-29T07:04:23.047Z,16.10
2022-08-29T07:06:54.300Z,16.20
2022-08-29T07:09:21.587Z,16.40
2022-08-29T07:11:48.813Z,16.70
2022-08-29T07:14:15.998Z,16.90
2022-08-29T07:16:43.251Z,16.90
2022-08-29T07:19:11.219Z,17.00
2022-08-29T07:21:38.840Z,17.10
2022-08-29T07:24:07.297Z,17.20
2022-08-29T07:26:41.293Z,17.30
2022-08-29T07:29:13.244Z,17.40
2022-08-29T07:31:41.031Z,17.40
2022-08-29T07:34:09.014Z,17.40
2022-08-29T07:36:37.195Z,17.50
2022-08-29T07:39:07.709Z,17.60
2022-08-29T07:41:35.393Z,17.70
2022-08-29T07:44:02.866Z,17.80
2022-08-29T07:46:31.491Z,18.00
2022-08-29T07:48:59.711Z,18.10
2022-08-29T07:51:27.525Z,18.10
2022-08-29T07:53:56.033Z,18.00
2022-08-29T07:56:37.622Z,18.10
2022-08-29T07:59:05.806Z,18.10
2022-08-29T08:01:33.430Z,18.20
2022-08-29T08:04:01.083Z,18.40
2022-08-29T08:06:28.393Z,18.50
2022-08-29T08:08:57.874Z,18.50
2022-08-29T08:11:27.296Z,18.60
2022-08-29T08:13:55.071Z,18.60
2022-08-29T08:16:25.131Z,18.50
2022-08-29T08:18:53.527Z,18.60
2022-08-29T08:21:21.180Z,18.70
2022-08-29T08:23:48.675Z,18.80
2022-08-29T08:26:16.359Z,18.70
2022-08-29T08:28:44.302Z,18.60
2022-08-29T08:31:14.324Z,18.50
2022-08-29T08:33:42.570Z,18.30
2022-08-29T08:36:23.194Z,18.20
2022-08-29T08:38:51.743Z,18.10
2022-08-29T08:41:27.747Z,18.10
2022-08-29T08:44:09.042Z,18.20
2022-08-29T08:46:41.017Z,18.40
2022-08-29T08:49:33.758Z,18.80
2022-08-29T08:52:06.477Z,19.00
2022-08-29T08:54:43.463Z,19.10
2022-08-29T08:57:13.522Z,19.30
2022-08-29T08:59:45.252Z,19.30
2022-08-29T09:02:12.480Z,19.50
2022-08-29T09:05:14.487Z,19.60
2022-08-29T09:07:55.078Z,19.70
2022-08-29T09:10:22.563Z,20.50
2022-08-29T09:13:21.745Z,21.30
2022-08-29T09:15:53.069Z,22.40
2022-08-29T09:18:27.127Z,23.10
2022-08-29T09:20:54.550Z,23.90
2022-08-29T09:23:28.182Z,24.20
2022-08-29T09:25:55.433Z,24.60
2022-08-29T09:28:22.712Z,25.00
2022-08-29T09:31:14.949Z,25.90
2022-08-29T09:33:46.777Z,26.20
2022-08-29T09:36:35.569Z,26.80
2022-08-29T09:39:25.646Z,27.30
2022-08-29T09:42:00.042Z,27.10
2022-08-29T09:44:30.427Z,26.80
2022-08-29T09:47:13.373Z,26.70
2022-08-29T09:49:59.983Z,27.00
2022-08-29T09:52:27.486Z,27.20
2022-08-29T09:54:54.772Z,28.00
2022-08-29T09:57:25.811Z,28.30
2022-08-29T10:00:13.766Z,28.80
2022-08-29T10:02:48.237Z,29.50
2022-08-29T10:05:40.546Z,30.20
2022-08-29T10:08:29.645Z,31.30
2022-08-29T10:11:00.279Z,31.60
2022-08-29T10:13:52.447Z,31.30
2022-08-29T10:16:45.892Z,31.30
2022-08-29T10:19:17.911Z,31.60
2022-08-29T10:22:14.354Z,31.70
2022-08-29T10:25:02.331Z,31.20
2022-08-29T10:27:51.615Z,30.90
2022-08-29T10:30:26.626Z,29.70
2022-08-29T10:32:53.796Z,29.40
2022-08-29T10:35:21.215Z,30.60
2022-08-29T10:37:59.380Z,31.70
2022-08-29T10:40:49.672Z,32.50
2022-08-29T10:43:29.074Z,32.60
2022-08-29T10:46:24.363Z,32.30
2022-08-29T10:49:05.151Z,32.30
2022-08-29T10:51:46.843Z,30.60
2022-08-29T10:54:40.438Z,29.70
2022-08-29T10:57:08.965Z,29.10
2022-08-29T10:59:54.916Z,29.10
2022-08-29T11:02:27.456Z,29.40
2022-08-29T11:04:58.999Z,29.10
2022-08-29T11:07:33.798Z,29.70
2022-08-29T11:10:04.830Z,30.10
2022-08-29T11:12:45.061Z,30.30
2022-08-29T11:15:24.718Z,29.80
2022-08-29T11:18:05.062Z,28.90
2022-08-29T11:20:40.673Z,28.30
2022-08-29T11:23:16.279Z,27.70
2022-08-29T11:25:44.633Z,28.00
2022-08-29T11:28:30.824Z,29.10
2022-08-29T11:31:24.617Z,29.60
2022-08-29T11:34:14.870Z,30.20
2022-08-29T11:37:12.945Z,29.60
2022-08-29T11:39:50.700Z,30.10
2022-08-29T11:45:13.727Z,32.40
2022-08-29T11:47:46.999Z,33.00
2022-08-29T11:50:16.999Z,33.40
2022-08-29T11:53:35.108Z,33.60
2022-08-29T11:56:14.273Z,32.80
2022-08-29T11:58:46.612Z,31.40
2022-08-29T12:01:52.231Z,30.70
2022-08-29T12:04:54.783Z,29.90
2022-08-29T12:07:41.767Z,29.40
2022-08-29T12:10:19.834Z,29.30
2022-08-29T12:12:51.273Z,29.20
2022-08-29T12:15:27.164Z,29.60
2022-08-29T12:18:02.458Z,30.70
2022-08-29T12:20:30.353Z,31.70
2022-08-29T12:23:12.838Z,32.70
2022-08-29T12:25:46.249Z,33.30
2022-08-29T12:28:23.771Z,33.30
2022-08-29T12:31:06.964Z,33.30
2022-08-29T12:34:05.879Z,33.40
2022-08-29T12:36:52.228Z,33.30
2022-08-29T12:39:38.641Z,33.70
2022-08-29T12:42:46.253Z,34.50
2022-08-29T12:45:18.811Z,35.60
2022-08-29T12:47:53.538Z,36.50
2022-08-29T12:50:25.879Z,37.00
2022-08-29T12:53:06.102Z,35.90
2022-08-29T12:55:39.755Z,34.80
2022-08-29T12:58:08.584Z,33.90
2022-08-29T13:00:36.256Z,33.70
2022-08-29T13:03:14.986Z,33.60
2022-08-29T13:05:43.467Z,33.90
2022-08-29T13:08:13.965Z,34.60
2022-08-29T13:10:56.094Z,34.90
2022-08-29T13:13:25.199Z,36.00
2022-08-29T13:15:55.376Z,37.20
2022-08-29T13:18:23.628Z,37.80
2022-08-29T13:21:06.183Z,37.70
2022-08-29T13:23:45.793Z,37.50
2022-08-29T13:26:14.068Z,36.50
2022-08-29T13:28:44.048Z,35.80
2022-08-29T13:31:16.993Z,35.40
2022-08-29T13:33:50.074Z,35.10
2022-08-29T13:36:34.031Z,34.50
2022-08-29T13:39:26.338Z,33.70
2022-08-29T13:42:02.651Z,32.80
2022-08-29T13:44:45.151Z,31.70
2022-08-29T13:47:19.991Z,31.10
2022-08-29T13:49:48.235Z,30.80
2022-08-29T13:52:17.784Z,31.10
2022-08-29T13:54:45.245Z,32.20
2022-08-29T13:57:19.058Z,33.70
2022-08-29T13:59:46.513Z,34.90
2022-08-29T14:02:14.804Z,35.10
2022-08-29T14:04:43.917Z,35.70
2022-08-29T14:07:29.668Z,36.20
2022-08-29T14:09:57.385Z,36.20
2022-08-29T14:12:33.207Z,36.30
2022-08-29T14:15:06.701Z,36.10
2022-08-29T14:17:38.865Z,34.90
2022-08-29T14:20:07.857Z,34.70
2022-08-29T14:22:35.571Z,34.50
2022-08-29T14:25:03.004Z,33.80
2022-08-29T14:27:30.829Z,33.00
2022-08-29T14:29:58.229Z,31.80
2022-08-29T14:32:26.776Z,31.50
2022-08-29T14:34:54.223Z,31.30
2022-08-29T14:37:21.685Z,31.20
2022-08-29T14:39:49.955Z,31.30
2022-08-29T14:42:18.414Z,31.30
2022-08-29T14:44:45.730Z,31.00
2022-08-29T14:47:13.120Z,30.50
2022-08-29T14:49:40.800Z,30.00
2022-08-29T14:52:08.173Z,30.20
2022-08-29T14:54:35.419Z,30.60
2022-08-29T14:57:02.946Z,30.90
2022-08-29T14:59:30.149Z,31.30
2022-08-29T15:01:57.471Z,31.50
2022-08-29T15:04:36.021Z,31.80
2022-08-29T15:07:06.493Z,32.00
2022-08-29T15:09:33.731Z,32.30
2022-08-29T15:12:01.291Z,32.20
2022-08-29T15:14:28.480Z,31.90
2022-08-29T15:16:55.652Z,31.60
2022-08-29T15:20:18.107Z,30.90
2022-08-29T15:22:11.451Z,30.20
2022-08-29T15:24:39.588Z,29.60
2022-08-29T15:27:07.400Z,29.40
2022-08-29T15:29:37.232Z,29.70
2022-08-29T15:32:04.762Z,29.80
2022-08-29T15:34:32.457Z,30.20
2022-08-29T15:37:00.891Z,30.20
2022-08-29T15:39:28.563Z,29.70
2022-08-29T15:41:57.407Z,29.60
2022-08-29T15:44:25.440Z,29.70
2022-08-29T15:46:56.269Z,29.50
2022-08-29T15:49:25.770Z,29.00
2022-08-29T15:51:53.758Z,28.80
2022-08-29T15:54:22.859Z,28.80
2022-08-29T15:56:50.581Z,28.50
2022-08-29T15:59:27.633Z,28.10
2022-08-29T16:02:03.883Z,27.80
2022-08-29T16:04:31.423Z,27.40
2022-08-29T16:06:58.939Z,27.20
2022-08-29T16:09:26.146Z,27.10
2022-08-29T16:11:53.451Z,27.30
2022-08-29T16:14:58.102Z,27.40
2022-08-29T16:17:09.504Z,27.10
2022-08-29T16:19:41.673Z,26.90
2022-08-29T16:22:09.226Z,26.70
2022-08-29T16:24:36.804Z,26.40
2022-08-29T16:27:04.475Z,26.30
2022-08-29T16:29:31.661Z,26.20
2022-08-29T16:31:59.529Z,26.00
2022-08-29T16:34:28.447Z,25.90
2022-08-29T16:37:00.777Z,25.90
2022-08-29T16:39:29.231Z,25.80
2022-08-29T16:41:56.732Z,25.70
2022-08-29T16:44:24.338Z,25.50
2022-08-29T16:46:52.289Z,25.30
2022-08-29T16:49:19.574Z,25.20
2022-08-29T16:51:46.802Z,25.00
2022-08-29T16:54:16.009Z,25.00
2022-08-29T16:56:44.508Z,24.90
2022-08-29T16:59:12.495Z,25.00
2022-08-29T17:01:45.559Z,24.90
2022-08-29T17:04:22.093Z,24.80
2022-08-29T17:06:49.648Z,24.60
2022-08-29T17:09:18.746Z,24.50
2022-08-29T17:11:46.924Z,24.30
2022-08-29T17:14:15.940Z,24.10
2022-08-29T17:16:45.799Z,24.00
2022-08-29T17:19:14.739Z,23.80
2022-08-29T17:21:42.974Z,23.60
2022-08-29T17:24:11.917Z,23.30
2022-08-29T17:26:42.744Z,23.20
2022-08-29T17:29:10.546Z,23.10
2022-08-29T17:31:38.972Z,22.90
2022-08-29T17:34:08.624Z,22.80
2022-08-29T17:36:37.252Z,22.70
2022-08-29T17:39:06.515Z,22.60
2022-08-29T17:41:37.103Z,22.60
2022-08-29T17:44:07.379Z,22.50
2022-08-29T17:46:35.198Z,22.40
2022-08-29T17:49:07.632Z,22.40
2022-08-29T17:51:38.905Z,22.30
2022-08-29T17:54:12.056Z,22.30
2022-08-29T17:56:46.492Z,22.20
2022-08-29T17:59:15.929Z,22.10
2022-08-29T18:01:44.134Z,22.00
2022-08-29T18:04:11.844Z,21.90
2022-08-29T18:06:39.735Z,21.80
2022-08-29T18:09:07.669Z,21.70
2022-08-29T18:11:40.300Z,21.50
2022-08-29T18:14:08.559Z,21.30
2022-08-29T18:16:36.490Z,21.20
2022-08-29T18:19:04.504Z,21.10
2022-08-29T18:21:32.836Z,20.90
2022-08-29T18:24:00.748Z,20.80
2022-08-29T18:26:28.333Z,20.70
2022-08-29T18:28:55.871Z,20.60
2022-08-29T18:31:23.640Z,20.50
2022-08-29T18:34:06.441Z,20.40
2022-08-29T18:36:35.626Z,20.40
2022-08-29T18:39:05.110Z,20.30
2022-08-29T18:41:32.685Z,20.30
2022-08-29T18:43:59.928Z,20.20
2022-08-29T18:46:28.010Z,20.10
2022-08-29T18:48:55.350Z,20.10
2022-08-29T18:51:22.968Z,20.10
2022-08-29T18:53:50.380Z,20.00
2022-08-29T18:56:17.958Z,20.00
2022-08-29T18:58:45.195Z,19.90
2022-08-29T19:01:27.454Z,19.90
2022-08-29T19:03:57.617Z,19.90
2022-08-29T19:06:25.941Z,19.80
2022-08-29T19:08:55.057Z,19.90
2022-08-29T19:11:22.622Z,19.90
2022-08-29T19:13:52.485Z,19.90
2022-08-29T19:16:21.550Z,19.90
2022-08-29T19:18:49.476Z,19.90
2022-08-29T19:21:16.713Z,19.90
2022-08-29T19:23:51.333Z,19.90
2022-08-29T19:26:29.790Z,19.80
2022-08-29T19:28:59.395Z,19.80
2022-08-29T19:31:28.871Z,19.70
2022-08-29T19:33:57.265Z,19.60
2022-08-29T19:36:25.773Z,19.50
2022-08-29T19:38:53.561Z,19.40
2022-08-29T19:41:21.012Z,19.40
2022-08-29T19:43:48.719Z,19.30
2022-08-29T19:46:20.236Z,19.20
2022-08-29T19:48:51.597Z,19.10
2022-08-29T19:51:24.533Z,19.10
2022-08-29T19:53:53.813Z,19.10
2022-08-29T19:56:21.076Z,19.20
2022-08-29T19:58:49.460Z,19.20
2022-08-29T20:01:17.259Z,19.00
2022-08-29T20:03:44.720Z,19.00
2022-08-29T20:06:12.346Z,18.90
2022-08-29T20:08:43.608Z,18.80
2022-08-29T20:11:16.313Z,18.80
2022-08-29T20:13:50.453Z,18.80
2022-08-29T20:16:21.524Z,18.90
2022-08-29T20:18:50.143Z,19.00
2022-08-29T20:21:19.457Z,18.90
2022-08-29T20:23:49.660Z,18.90
2022-08-29T20:26:22.794Z,18.80
2022-08-29T20:28:52.246Z,18.70
2022-08-29T20:31:20.165Z,18.70
2022-08-29T20:33:48.840Z,18.70
2022-08-29T20:36:38.551Z,18.60
2022-08-29T20:39:11.254Z,18.50
2022-08-29T20:41:38.578Z,18.40
2022-08-29T20:44:10.160Z,18.40
2022-08-29T20:46:40.181Z,18.30
2022-08-29T20:49:09.326Z,18.20
2022-08-29T20:51:37.651Z,18.10
2022-08-29T20:54:06.328Z,18.00
2022-08-29T20:56:33.545Z,18.00
2022-08-29T20:59:00.751Z,17.90
2022-08-29T21:01:27.967Z,17.80
2022-08-29T21:04:13.814Z,17.70
2022-08-29T21:06:41.129Z,17.70
2022-08-29T21:09:09.056Z,17.60
2022-08-29T21:11:36.381Z,17.50
2022-08-29T21:14:03.972Z,17.40
2022-08-29T21:16:31.407Z,17.40
2022-08-29T21:18:58.640Z,17.30
2022-08-29T21:21:26.466Z,17.30
2022-08-29T21:23:53.742Z,17.20
2022-08-29T21:26:21.212Z,17.20
2022-08-29T21:28:48.443Z,17.10
2022-08-29T21:31:16.553Z,17.10
2022-08-29T21:33:45.319Z,17.00
2022-08-29T21:36:19.327Z,16.90
2022-08-29T21:38:48.256Z,16.80
2022-08-29T21:41:15.516Z,16.70
2022-08-29T21:43:43.330Z,16.70
2022-08-29T21:46:19.065Z,16.70
2022-08-29T21:48:47.431Z,16.70
2022-08-29T21:51:18.536Z,16.60
2022-08-29T21:53:47.349Z,16.60
2022-08-29T21:56:14.690Z,16.60
2022-08-29T21:58:42.135Z,16.50
2022-08-29T22:01:11.237Z,16.40
2022-08-29T22:03:39.649Z,16.40
2022-08-29T22:06:09.210Z,16.40
2022-08-29T22:08:38.856Z,16.30
2022-08-29T22:11:14.885Z,16.30
2022-08-29T22:13:42.262Z,16.20
2022-08-29T22:16:28.824Z,16.20
2022-08-29T22:19:09.984Z,16.20
2022-08-29T22:21:40.734Z,16.20
2022-08-29T22:24:08.443Z,16.20
2022-08-29T22:26:36.246Z,16.20
2022-08-29T22:29:04.560Z,16.20
2022-08-29T22:31:32.046Z,16.20
2022-08-29T22:34:00.312Z,16.20
2022-08-29T22:36:27.794Z,16.20
2022-08-29T22:38:56.756Z,16.30
2022-08-29T22:41:24.622Z,16.30
2022-08-29T22:44:11.381Z,16.40
2022-08-29T22:46:45.096Z,16.40
2022-08-29T22:49:12.546Z,16.40
2022-08-29T22:51:39.796Z,16.40
2022-08-29T22:54:25.519Z,16.40
2022-08-29T22:56:54.598Z,16.50
2022-08-29T22:59:22.267Z,16.50
2022-08-29T23:01:49.545Z,16.60
2022-08-29T23:04:16.834Z,16.60
2022-08-29T23:06:44.141Z,16.70
2022-08-29T23:09:12.850Z,16.80
2022-08-29T23:11:40.596Z,17.00
2022-08-29T23:14:09.262Z,17.10
2022-08-29T23:16:40.391Z,17.10
2022-08-29T23:19:07.774Z,17.10
2022-08-29T23:21:35.354Z,17.10
2022-08-29T23:24:07.164Z,17.00
2022-08-29T23:26:35.265Z,16.90
2022-08-29T23:29:02.976Z,16.80
2022-08-29T23:31:30.254Z,16.70
2022-08-29T23:33:57.619Z,16.70
2022-08-29T23:36:24.894Z,16.60
2022-08-29T23:38:52.606Z,16.60
2022-08-29T23:41:20.043Z,16.50
2022-08-29T23:43:47.711Z,16.50
2022-08-29T23:46:15.064Z,16.50
2022-08-29T23:48:43.454Z,16.70
2022-08-29T23:51:13.702Z,16.80
2022-08-29T23:53:42.353Z,16.90
2022-08-29T23:56:15.369Z,16.80
2022-08-29T23:58:43.418Z,16.80
